Disclaimer

Please do not use the information listed here in-flight or in-navigation, as they are not provided to us by the airports but are provided by volunteers, so they might be outdated.

Search


Regions


Airport information page

No radio frequency information is available.

Airport informations:
Latitude: 67° 14' 44.30" N
Longitude: 023° 04' 08.08" E
Elevation: 542 feet - 165 meters
Operating hours: 24 hour operations
Operating agency: Private
Timezone: UTC+1(+2DT) - Last Sunday in March to last Sunday in October
Fuel: 100/130 MIL Spec, low lead, aviation gasoline (BLUE)

Runway information:
11/29 - 4659 x 98 feet< - >1420 x 30 meters

Recent METARs:
ESUP 151720Z AUTO 00000KT 0400 R11/1100N FZFG VV003 M21/M23 Q1030
ESUP 151750Z 00000KT 0450 R11/1200U FZFG VV002 M21/M23 Q1030
ESUP 151820Z 00000KT 0250 R11/0700N FZFG VV002 M21/M23 Q1030

Airport on the map: